sensor_id;sensor_type;location;lat;lon;timestamp;P1;durP1;ratioP1;P2;durP2;ratioP2
45388;SDS011;31127;52.078;4.370;2023-09-19T00:01:46;11.00;;;2.60;;
45388;SDS011;31127;52.078;4.370;2023-09-19T00:06:41;9.32;;;2.13;;
45388;SDS011;31127;52.078;4.370;2023-09-19T00:11:38;13.15;;;2.75;;
45388;SDS011;31127;52.078;4.370;2023-09-19T00:16:33;5.85;;;1.75;;
45388;SDS011;31127;52.078;4.370;2023-09-19T00:21:49;8.93;;;2.08;;
45388;SDS011;31127;52.078;4.370;2023-09-19T00:26:45;12.70;;;2.25;;
45388;SDS011;31127;52.078;4.370;2023-09-19T00:31:45;9.65;;;1.92;;
45388;SDS011;31127;52.078;4.370;2023-09-19T00:36:41;17.52;;;3.22;;
45388;SDS011;31127;52.078;4.370;2023-09-19T00:41:38;13.27;;;3.05;;
45388;SDS011;31127;52.078;4.370;2023-09-19T00:46:34;14.73;;;3.28;;
45388;SDS011;31127;52.078;4.370;2023-09-19T00:51:29;18.83;;;3.83;;
45388;SDS011;31127;52.078;4.370;2023-09-19T00:56:25;11.70;;;2.90;;
45388;SDS011;31127;52.078;4.370;2023-09-19T01:01:21;17.13;;;3.20;;
45388;SDS011;31127;52.078;4.370;2023-09-19T01:06:36;13.93;;;3.25;;
45388;SDS011;31127;52.078;4.370;2023-09-19T01:11:53;12.80;;;3.40;;
45388;SDS011;31127;52.078;4.370;2023-09-19T01:16:59;11.07;;;2.47;;
45388;SDS011;31127;52.078;4.370;2023-09-19T01:32:43;17.67;;;3.40;;
45388;SDS011;31127;52.078;4.370;2023-09-19T01:37:41;15.63;;;3.10;;
45388;SDS011;31127;52.078;4.370;2023-09-19T01:42:58;14.85;;;2.97;;
45388;SDS011;31127;52.078;4.370;2023-09-19T01:47:55;16.23;;;3.35;;
45388;SDS011;31127;52.078;4.370;2023-09-19T01:52:57;17.83;;;3.92;;
45388;SDS011;31127;52.078;4.370;2023-09-19T01:58:07;15.68;;;3.42;;
45388;SDS011;31127;52.078;4.370;2023-09-19T02:03:03;11.70;;;2.63;;
45388;SDS011;31127;52.078;4.370;2023-09-19T02:08:18;20.15;;;3.25;;
45388;SDS011;31127;52.078;4.370;2023-09-19T02:13:17;11.80;;;2.53;;
45388;SDS011;31127;52.078;4.370;2023-09-19T02:18:14;14.82;;;3.13;;
45388;SDS011;31127;52.078;4.370;2023-09-19T02:23:11;12.35;;;3.05;;
45388;SDS011;31127;52.078;4.370;2023-09-19T02:28:07;12.02;;;2.50;;
45388;SDS011;31127;52.078;4.370;2023-09-19T02:33:04;10.63;;;2.85;;
45388;SDS011;31127;52.078;4.370;2023-09-19T02:38:00;8.50;;;1.95;;
45388;SDS011;31127;52.078;4.370;2023-09-19T02:42:56;14.68;;;2.70;;
45388;SDS011;31127;52.078;4.370;2023-09-19T02:47:52;12.00;;;3.05;;
45388;SDS011;31127;52.078;4.370;2023-09-19T02:52:48;12.73;;;2.50;;
45388;SDS011;31127;52.078;4.370;2023-09-19T02:57:50;7.43;;;2.30;;
45388;SDS011;31127;52.078;4.370;2023-09-19T03:02:50;15.27;;;3.38;;
45388;SDS011;31127;52.078;4.370;2023-09-19T03:08:06;13.32;;;2.30;;
45388;SDS011;31127;52.078;4.370;2023-09-19T03:13:21;12.07;;;2.60;;
45388;SDS011;31127;52.078;4.370;2023-09-19T03:18:17;15.02;;;3.03;;
45388;SDS011;31127;52.078;4.370;2023-09-19T03:23:12;11.80;;;2.47;;
45388;SDS011;31127;52.078;4.370;2023-09-19T03:28:08;12.77;;;3.03;;
45388;SDS011;31127;52.078;4.370;2023-09-19T03:33:05;11.50;;;2.30;;
45388;SDS011;31127;52.078;4.370;2023-09-19T03:38:02;9.38;;;3.20;;
45388;SDS011;31127;52.078;4.370;2023-09-19T03:43:00;9.85;;;2.30;;
45388;SDS011;31127;52.078;4.370;2023-09-19T03:47:56;17.77;;;4.15;;
45388;SDS011;31127;52.078;4.370;2023-09-19T03:52:56;19.00;;;2.75;;
45388;SDS011;31127;52.078;4.370;2023-09-19T03:57:52;13.90;;;3.00;;
45388;SDS011;31127;52.078;4.370;2023-09-19T04:02:48;12.55;;;2.40;;
45388;SDS011;31127;52.078;4.370;2023-09-19T04:07:44;7.10;;;2.17;;
45388;SDS011;31127;52.078;4.370;2023-09-19T04:12:40;9.82;;;2.33;;
45388;SDS011;31127;52.078;4.370;2023-09-19T04:17:56;9.90;;;2.85;;
45388;SDS011;31127;52.078;4.370;2023-09-19T04:22:51;8.52;;;2.33;;
45388;SDS011;31127;52.078;4.370;2023-09-19T04:28:07;17.70;;;3.30;;
45388;SDS011;31127;52.078;4.370;2023-09-19T04:33:03;8.07;;;2.80;;
45388;SDS011;31127;52.078;4.370;2023-09-19T04:37:58;14.05;;;2.47;;
45388;SDS011;31127;52.078;4.370;2023-09-19T04:43:14;6.05;;;1.88;;
45388;SDS011;31127;52.078;4.370;2023-09-19T04:48:10;11.98;;;1.98;;
45388;SDS011;31127;52.078;4.370;2023-09-19T04:53:06;13.60;;;2.25;;
45388;SDS011;31127;52.078;4.370;2023-09-19T04:58:02;11.50;;;2.60;;
45388;SDS011;31127;52.078;4.370;2023-09-19T05:03:17;14.02;;;3.42;;
45388;SDS011;31127;52.078;4.370;2023-09-19T05:08:16;11.05;;;2.53;;
45388;SDS011;31127;52.078;4.370;2023-09-19T05:13:11;9.90;;;2.50;;
45388;SDS011;31127;52.078;4.370;2023-09-19T05:18:07;9.52;;;2.75;;
45388;SDS011;31127;52.078;4.370;2023-09-19T05:23:03;15.50;;;3.73;;
45388;SDS011;31127;52.078;4.370;2023-09-19T05:28:00;13.32;;;3.05;;
45388;SDS011;31127;52.078;4.370;2023-09-19T05:32:58;13.65;;;3.38;;
45388;SDS011;31127;52.078;4.370;2023-09-19T05:37:54;19.20;;;4.75;;
45388;SDS011;31127;52.078;4.370;2023-09-19T05:42:51;10.85;;;3.45;;
45388;SDS011;31127;52.078;4.370;2023-09-19T05:47:47;14.30;;;2.83;;
45388;SDS011;31127;52.078;4.370;2023-09-19T05:52:43;12.90;;;3.03;;
45388;SDS011;31127;52.078;4.370;2023-09-19T05:57:39;14.73;;;3.30;;
45388;SDS011;31127;52.078;4.370;2023-09-19T06:02:55;16.15;;;3.25;;
45388;SDS011;31127;52.078;4.370;2023-09-19T06:08:10;15.32;;;3.17;;
45388;SDS011;31127;52.078;4.370;2023-09-19T06:13:29;16.00;;;3.90;;
45388;SDS011;31127;52.078;4.370;2023-09-19T06:18:44;16.98;;;4.20;;
45388;SDS011;31127;52.078;4.370;2023-09-19T06:23:41;15.35;;;3.80;;
45388;SDS011;31127;52.078;4.370;2023-09-19T06:28:36;23.90;;;5.22;;
45388;SDS011;31127;52.078;4.370;2023-09-19T06:33:32;20.08;;;3.72;;
45388;SDS011;31127;52.078;4.370;2023-09-19T06:38:27;16.55;;;3.42;;
45388;SDS011;31127;52.078;4.370;2023-09-19T06:43:23;16.92;;;3.50;;
45388;SDS011;31127;52.078;4.370;2023-09-19T06:48:19;15.18;;;3.80;;
45388;SDS011;31127;52.078;4.370;2023-09-19T06:53:16;16.23;;;3.95;;
45388;SDS011;31127;52.078;4.370;2023-09-19T06:58:13;18.75;;;4.10;;
45388;SDS011;31127;52.078;4.370;2023-09-19T07:03:08;18.05;;;4.60;;
45388;SDS011;31127;52.078;4.370;2023-09-19T07:08:07;15.07;;;3.25;;
45388;SDS011;31127;52.078;4.370;2023-09-19T07:13:04;13.55;;;3.30;;
45388;SDS011;31127;52.078;4.370;2023-09-19T07:18:01;15.32;;;4.13;;
45388;SDS011;31127;52.078;4.370;2023-09-19T07:23:20;20.17;;;4.38;;
45388;SDS011;31127;52.078;4.370;2023-09-19T07:28:16;16.42;;;3.38;;
45388;SDS011;31127;52.078;4.370;2023-09-19T07:33:12;12.10;;;2.97;;
45388;SDS011;31127;52.078;4.370;2023-09-19T07:38:10;22.05;;;3.83;;
45388;SDS011;31127;52.078;4.370;2023-09-19T07:43:06;16.73;;;4.32;;
45388;SDS011;31127;52.078;4.370;2023-09-19T07:48:22;18.38;;;3.05;;
45388;SDS011;31127;52.078;4.370;2023-09-19T07:53:19;18.30;;;4.05;;
45388;SDS011;31127;52.078;4.370;2023-09-19T07:58:15;17.38;;;4.03;;
45388;SDS011;31127;52.078;4.370;2023-09-19T08:03:11;19.35;;;4.10;;
45388;SDS011;31127;52.078;4.370;2023-09-19T08:08:09;16.52;;;4.43;;
45388;SDS011;31127;52.078;4.370;2023-09-19T08:13:06;19.70;;;4.47;;
45388;SDS011;31127;52.078;4.370;2023-09-19T08:18:06;23.83;;;4.03;;
45388;SDS011;31127;52.078;4.370;2023-09-19T08:23:02;18.45;;;4.13;;
45388;SDS011;31127;52.078;4.370;2023-09-19T08:27:59;18.52;;;4.45;;
45388;SDS011;31127;52.078;4.370;2023-09-19T08:33:14;14.15;;;3.58;;
45388;SDS011;31127;52.078;4.370;2023-09-19T08:38:12;21.17;;;4.57;;
45388;SDS011;31127;52.078;4.370;2023-09-19T08:43:09;9.68;;;3.13;;
45388;SDS011;31127;52.078;4.370;2023-09-19T08:53:02;17.52;;;4.05;;
45388;SDS011;31127;52.078;4.370;2023-09-19T08:58:03;16.83;;;3.97;;
45388;SDS011;31127;52.078;4.370;2023-09-19T09:02:59;20.90;;;5.25;;
45388;SDS011;31127;52.078;4.370;2023-09-19T09:08:15;23.00;;;4.55;;
45388;SDS011;31127;52.078;4.370;2023-09-19T09:13:11;18.13;;;3.50;;
45388;SDS011;31127;52.078;4.370;2023-09-19T09:18:09;8.93;;;2.78;;
45388;SDS011;31127;52.078;4.370;2023-09-19T09:23:25;16.20;;;4.35;;
45388;SDS011;31127;52.078;4.370;2023-09-19T09:28:25;13.88;;;3.35;;
45388;SDS011;31127;52.078;4.370;2023-09-19T09:33:21;17.52;;;3.65;;
45388;SDS011;31127;52.078;4.370;2023-09-19T09:38:16;16.30;;;3.42;;
45388;SDS011;31127;52.078;4.370;2023-09-19T09:48:30;17.33;;;3.58;;
45388;SDS011;31127;52.078;4.370;2023-09-19T09:53:47;15.25;;;4.05;;
45388;SDS011;31127;52.078;4.370;2023-09-19T09:59:03;10.55;;;3.40;;
45388;SDS011;31127;52.078;4.370;2023-09-19T10:03:59;15.32;;;3.40;;
45388;SDS011;31127;52.078;4.370;2023-09-19T10:14:06;12.68;;;2.83;;
45388;SDS011;31127;52.078;4.370;2023-09-19T10:19:05;12.10;;;2.80;;
45388;SDS011;31127;52.078;4.370;2023-09-19T10:24:03;10.00;;;2.58;;
45388;SDS011;31127;52.078;4.370;2023-09-19T10:29:00;14.73;;;3.28;;
45388;SDS011;31127;52.078;4.370;2023-09-19T10:33:56;11.80;;;2.67;;
45388;SDS011;31127;52.078;4.370;2023-09-19T10:38:52;14.98;;;3.53;;
45388;SDS011;31127;52.078;4.370;2023-09-19T10:43:50;13.68;;;3.20;;
45388;SDS011;31127;52.078;4.370;2023-09-19T10:48:46;10.25;;;2.50;;
45388;SDS011;31127;52.078;4.370;2023-09-19T10:54:05;7.80;;;1.98;;
45388;SDS011;31127;52.078;4.370;2023-09-19T10:59:22;9.73;;;3.17;;
45388;SDS011;31127;52.078;4.370;2023-09-19T11:04:35;10.13;;;2.85;;
45388;SDS011;31127;52.078;4.370;2023-09-19T11:09:47;10.43;;;3.23;;
45388;SDS011;31127;52.078;4.370;2023-09-19T11:14:43;8.23;;;2.28;;
45388;SDS011;31127;52.078;4.370;2023-09-19T11:24:54;8.38;;;2.53;;
45388;SDS011;31127;52.078;4.370;2023-09-19T11:29:51;9.07;;;2.00;;
45388;SDS011;31127;52.078;4.370;2023-09-19T11:35:07;6.13;;;1.67;;
45388;SDS011;31127;52.078;4.370;2023-09-19T11:40:07;17.70;;;2.42;;
45388;SDS011;31127;52.078;4.370;2023-09-19T11:46:12;9.95;;;2.15;;
45388;SDS011;31127;52.078;4.370;2023-09-19T11:50:44;14.23;;;2.40;;
45388;SDS011;31127;52.078;4.370;2023-09-19T11:56:00;7.25;;;1.80;;
45388;SDS011;31127;52.078;4.370;2023-09-19T12:00:56;9.32;;;2.22;;
45388;SDS011;31127;52.078;4.370;2023-09-19T12:05:54;10.43;;;2.75;;
45388;SDS011;31127;52.078;4.370;2023-09-19T12:10:50;10.40;;;2.30;;
45388;SDS011;31127;52.078;4.370;2023-09-19T12:15:46;7.38;;;2.25;;
45388;SDS011;31127;52.078;4.370;2023-09-19T12:21:01;10.45;;;2.60;;
45388;SDS011;31127;52.078;4.370;2023-09-19T12:25:57;13.73;;;2.30;;
45388;SDS011;31127;52.078;4.370;2023-09-19T12:30:55;14.18;;;2.80;;
45388;SDS011;31127;52.078;4.370;2023-09-19T12:35:50;7.57;;;2.33;;
45388;SDS011;31127;52.078;4.370;2023-09-19T12:41:05;9.73;;;2.33;;
45388;SDS011;31127;52.078;4.370;2023-09-19T12:46:21;10.38;;;2.22;;
45388;SDS011;31127;52.078;4.370;2023-09-19T12:51:21;7.60;;;2.25;;
45388;SDS011;31127;52.078;4.370;2023-09-19T12:56:19;9.73;;;2.50;;
45388;SDS011;31127;52.078;4.370;2023-09-19T13:01:15;7.43;;;2.13;;
45388;SDS011;31127;52.078;4.370;2023-09-19T13:06:37;8.52;;;2.65;;
45388;SDS011;31127;52.078;4.370;2023-09-19T13:11:55;9.10;;;2.47;;
45388;SDS011;31127;52.078;4.370;2023-09-19T13:16:55;10.02;;;3.10;;
45388;SDS011;31127;52.078;4.370;2023-09-19T13:21:51;9.93;;;2.85;;
45388;SDS011;31127;52.078;4.370;2023-09-19T13:26:49;12.45;;;2.92;;
45388;SDS011;31127;52.078;4.370;2023-09-19T13:31:46;12.82;;;3.03;;
45388;SDS011;31127;52.078;4.370;2023-09-19T13:36:42;11.52;;;3.38;;
45388;SDS011;31127;52.078;4.370;2023-09-19T13:41:37;11.60;;;3.70;;
45388;SDS011;31127;52.078;4.370;2023-09-19T13:46:33;10.27;;;3.80;;
45388;SDS011;31127;52.078;4.370;2023-09-19T13:51:30;13.32;;;3.42;;
45388;SDS011;31127;52.078;4.370;2023-09-19T13:56:26;18.42;;;3.90;;
45388;SDS011;31127;52.078;4.370;2023-09-19T14:01:25;21.35;;;5.95;;
45388;SDS011;31127;52.078;4.370;2023-09-19T14:06:22;13.90;;;3.63;;
45388;SDS011;31127;52.078;4.370;2023-09-19T14:11:18;17.92;;;4.45;;
45388;SDS011;31127;52.078;4.370;2023-09-19T14:16:13;15.20;;;4.03;;
45388;SDS011;31127;52.078;4.370;2023-09-19T14:21:13;13.95;;;3.70;;
45388;SDS011;31127;52.078;4.370;2023-09-19T14:26:09;16.38;;;3.25;;
45388;SDS011;31127;52.078;4.370;2023-09-19T14:31:08;13.52;;;5.63;;
45388;SDS011;31127;52.078;4.370;2023-09-19T14:36:24;16.90;;;3.80;;
45388;SDS011;31127;52.078;4.370;2023-09-19T14:41:20;14.73;;;3.40;;
45388;SDS011;31127;52.078;4.370;2023-09-19T14:46:16;17.10;;;3.83;;
45388;SDS011;31127;52.078;4.370;2023-09-19T14:51:13;18.63;;;5.15;;
45388;SDS011;31127;52.078;4.370;2023-09-19T14:56:09;17.27;;;4.93;;
45388;SDS011;31127;52.078;4.370;2023-09-19T15:01:22;15.23;;;4.43;;
45388;SDS011;31127;52.078;4.370;2023-09-19T15:06:18;16.42;;;5.10;;
45388;SDS011;31127;52.078;4.370;2023-09-19T15:11:34;15.02;;;4.28;;
45388;SDS011;31127;52.078;4.370;2023-09-19T15:16:29;18.40;;;4.15;;
45388;SDS011;31127;52.078;4.370;2023-09-19T15:21:25;17.83;;;4.82;;
45388;SDS011;31127;52.078;4.370;2023-09-19T15:26:20;27.02;;;5.15;;
45388;SDS011;31127;52.078;4.370;2023-09-19T15:31:17;26.20;;;5.70;;
45388;SDS011;31127;52.078;4.370;2023-09-19T15:36:13;22.60;;;5.88;;
45388;SDS011;31127;52.078;4.370;2023-09-19T15:41:11;17.95;;;4.25;;
45388;SDS011;31127;52.078;4.370;2023-09-19T15:46:27;19.35;;;5.38;;
45388;SDS011;31127;52.078;4.370;2023-09-19T15:51:23;17.45;;;4.85;;
45388;SDS011;31127;52.078;4.370;2023-09-19T15:56:19;20.20;;;4.93;;
45388;SDS011;31127;52.078;4.370;2023-09-19T16:01:16;14.77;;;4.05;;
45388;SDS011;31127;52.078;4.370;2023-09-19T16:06:31;13.80;;;3.63;;
45388;SDS011;31127;52.078;4.370;2023-09-19T16:11:27;16.85;;;4.57;;
45388;SDS011;31127;52.078;4.370;2023-09-19T16:16:23;17.00;;;4.50;;
45388;SDS011;31127;52.078;4.370;2023-09-19T16:21:19;20.02;;;4.55;;
45388;SDS011;31127;52.078;4.370;2023-09-19T16:26:15;19.52;;;4.55;;
45388;SDS011;31127;52.078;4.370;2023-09-19T16:31:11;25.35;;;5.82;;
45388;SDS011;31127;52.078;4.370;2023-09-19T16:36:07;17.52;;;3.95;;
45388;SDS011;31127;52.078;4.370;2023-09-19T16:41:05;18.27;;;4.68;;
45388;SDS011;31127;52.078;4.370;2023-09-19T16:46:21;12.10;;;3.88;;
45388;SDS011;31127;52.078;4.370;2023-09-19T17:02:05;14.00;;;4.35;;
45388;SDS011;31127;52.078;4.370;2023-09-19T17:07:03;20.15;;;5.85;;
45388;SDS011;31127;52.078;4.370;2023-09-19T17:11:58;20.33;;;5.72;;
45388;SDS011;31127;52.078;4.370;2023-09-19T17:16:54;16.92;;;5.03;;
45388;SDS011;31127;52.078;4.370;2023-09-19T17:21:50;18.58;;;5.03;;
45388;SDS011;31127;52.078;4.370;2023-09-19T17:26:46;12.27;;;4.43;;
45388;SDS011;31127;52.078;4.370;2023-09-19T17:31:42;17.77;;;4.97;;
45388;SDS011;31127;52.078;4.370;2023-09-19T17:36:38;14.38;;;4.68;;
45388;SDS011;31127;52.078;4.370;2023-09-19T17:41:35;22.05;;;4.75;;
45388;SDS011;31127;52.078;4.370;2023-09-19T17:46:50;17.40;;;4.20;;
45388;SDS011;31127;52.078;4.370;2023-09-19T17:51:47;9.85;;;3.13;;
45388;SDS011;31127;52.078;4.370;2023-09-19T17:56:43;10.18;;;3.67;;
45388;SDS011;31127;52.078;4.370;2023-09-19T18:01:58;12.70;;;4.10;;
45388;SDS011;31127;52.078;4.370;2023-09-19T18:06:54;14.48;;;4.22;;
45388;SDS011;31127;52.078;4.370;2023-09-19T18:11:49;11.50;;;3.38;;
45388;SDS011;31127;52.078;4.370;2023-09-19T18:16:45;11.93;;;4.63;;
45388;SDS011;31127;52.078;4.370;2023-09-19T18:21:43;10.25;;;3.65;;
45388;SDS011;31127;52.078;4.370;2023-09-19T18:26:41;19.15;;;5.85;;
45388;SDS011;31127;52.078;4.370;2023-09-19T18:31:37;14.43;;;5.40;;
45388;SDS011;31127;52.078;4.370;2023-09-19T18:36:35;15.75;;;5.07;;
45388;SDS011;31127;52.078;4.370;2023-09-19T18:41:31;14.15;;;4.78;;
45388;SDS011;31127;52.078;4.370;2023-09-19T18:46:29;12.43;;;4.57;;
45388;SDS011;31127;52.078;4.370;2023-09-19T18:51:48;16.00;;;5.38;;
45388;SDS011;31127;52.078;4.370;2023-09-19T18:56:43;10.32;;;5.22;;
45388;SDS011;31127;52.078;4.370;2023-09-19T19:01:39;18.13;;;5.40;;
45388;SDS011;31127;52.078;4.370;2023-09-19T19:06:34;13.13;;;4.63;;
45388;SDS011;31127;52.078;4.370;2023-09-19T19:11:31;19.27;;;5.03;;
45388;SDS011;31127;52.078;4.370;2023-09-19T19:16:27;13.45;;;4.45;;
45388;SDS011;31127;52.078;4.370;2023-09-19T19:21:23;14.48;;;5.25;;
45388;SDS011;31127;52.078;4.370;2023-09-19T19:26:21;14.43;;;4.60;;
45388;SDS011;31127;52.078;4.370;2023-09-19T19:31:16;10.88;;;4.38;;
45388;SDS011;31127;52.078;4.370;2023-09-19T19:36:12;13.20;;;4.75;;
45388;SDS011;31127;52.078;4.370;2023-09-19T19:41:10;10.85;;;3.95;;
45388;SDS011;31127;52.078;4.370;2023-09-19T19:46:05;9.65;;;3.75;;
45388;SDS011;31127;52.078;4.370;2023-09-19T19:51:04;7.25;;;3.47;;
45388;SDS011;31127;52.078;4.370;2023-09-19T19:56:20;13.68;;;4.47;;
45388;SDS011;31127;52.078;4.370;2023-09-19T20:01:16;12.73;;;3.80;;
45388;SDS011;31127;52.078;4.370;2023-09-19T20:06:20;8.77;;;4.05;;
45388;SDS011;31127;52.078;4.370;2023-09-19T20:11:18;9.63;;;3.92;;
45388;SDS011;31127;52.078;4.370;2023-09-19T20:16:21;9.65;;;4.03;;
45388;SDS011;31127;52.078;4.370;2023-09-19T20:21:18;14.85;;;4.38;;
45388;SDS011;31127;52.078;4.370;2023-09-19T20:26:14;11.50;;;3.88;;
45388;SDS011;31127;52.078;4.370;2023-09-19T20:31:11;11.30;;;3.47;;
45388;SDS011;31127;52.078;4.370;2023-09-19T20:36:07;9.70;;;3.60;;
45388;SDS011;31127;52.078;4.370;2023-09-19T20:41:06;10.82;;;4.20;;
45388;SDS011;31127;52.078;4.370;2023-09-19T20:46:22;12.38;;;4.47;;
45388;SDS011;31127;52.078;4.370;2023-09-19T20:51:18;14.02;;;4.53;;
45388;SDS011;31127;52.078;4.370;2023-09-19T20:56:20;8.60;;;4.55;;
45388;SDS011;31127;52.078;4.370;2023-09-19T21:01:16;16.75;;;4.18;;
45388;SDS011;31127;52.078;4.370;2023-09-19T21:06:13;11.65;;;4.65;;
45388;SDS011;31127;52.078;4.370;2023-09-19T21:11:16;16.63;;;4.32;;
45388;SDS011;31127;52.078;4.370;2023-09-19T21:16:12;11.35;;;4.30;;
45388;SDS011;31127;52.078;4.370;2023-09-19T21:21:10;11.57;;;5.10;;
45388;SDS011;31127;52.078;4.370;2023-09-19T21:26:05;11.45;;;5.22;;
45388;SDS011;31127;52.078;4.370;2023-09-19T21:31:03;9.32;;;4.38;;
45388;SDS011;31127;52.078;4.370;2023-09-19T21:35:59;16.75;;;4.93;;
45388;SDS011;31127;52.078;4.370;2023-09-19T21:40:54;15.50;;;5.70;;
45388;SDS011;31127;52.078;4.370;2023-09-19T21:45:50;15.48;;;4.72;;
45388;SDS011;31127;52.078;4.370;2023-09-19T21:50:52;12.73;;;5.30;;
45388;SDS011;31127;52.078;4.370;2023-09-19T21:55:50;10.00;;;4.28;;
45388;SDS011;31127;52.078;4.370;2023-09-19T22:00:46;12.13;;;4.80;;
45388;SDS011;31127;52.078;4.370;2023-09-19T22:05:42;15.05;;;4.75;;
45388;SDS011;31127;52.078;4.370;2023-09-19T22:10:47;14.40;;;4.27;;
45388;SDS011;31127;52.078;4.370;2023-09-19T22:15:43;18.98;;;5.50;;
45388;SDS011;31127;52.078;4.370;2023-09-19T22:20:38;14.77;;;4.50;;
45388;SDS011;31127;52.078;4.370;2023-09-19T22:26:00;19.13;;;5.60;;
45388;SDS011;31127;52.078;4.370;2023-09-19T22:30:58;14.95;;;4.68;;
45388;SDS011;31127;52.078;4.370;2023-09-19T22:35:56;17.00;;;4.97;;
45388;SDS011;31127;52.078;4.370;2023-09-19T22:40:52;16.38;;;5.28;;
45388;SDS011;31127;52.078;4.370;2023-09-19T22:45:47;11.50;;;4.30;;
45388;SDS011;31127;52.078;4.370;2023-09-19T22:50:44;11.25;;;3.92;;
45388;SDS011;31127;52.078;4.370;2023-09-19T22:55:47;18.05;;;4.45;;
45388;SDS011;31127;52.078;4.370;2023-09-19T23:00:43;11.32;;;3.88;;
45388;SDS011;31127;52.078;4.370;2023-09-19T23:05:59;11.48;;;4.28;;
45388;SDS011;31127;52.078;4.370;2023-09-19T23:11:00;19.70;;;4.65;;
45388;SDS011;31127;52.078;4.370;2023-09-19T23:16:22;10.35;;;4.25;;
45388;SDS011;31127;52.078;4.370;2023-09-19T23:21:28;11.65;;;4.20;;
45388;SDS011;31127;52.078;4.370;2023-09-19T23:26:24;11.50;;;4.13;;
45388;SDS011;31127;52.078;4.370;2023-09-19T23:31:20;14.32;;;3.85;;
45388;SDS011;31127;52.078;4.370;2023-09-19T23:36:17;14.90;;;4.18;;
45388;SDS011;31127;52.078;4.370;2023-09-19T23:41:12;10.37;;;3.53;;
45388;SDS011;31127;52.078;4.370;2023-09-19T23:46:16;15.75;;;3.95;;
45388;SDS011;31127;52.078;4.370;2023-09-19T23:51:11;10.32;;;3.92;;
45388;SDS011;31127;52.078;4.370;2023-09-19T23:56:27;10.75;;;3.17;;
